createdAt,value
2023-02-11T00:00:42.507Z,0.07
2023-02-11T00:03:10.908Z,0.06
2023-02-11T00:05:38.753Z,0.30
2023-02-11T00:08:06.609Z,0.23
2023-02-11T00:10:34.645Z,-0.01
2023-02-11T00:13:02.580Z,-0.01
2023-02-11T00:15:30.341Z,0.06
2023-02-11T00:17:59.421Z,0.29
2023-02-11T00:20:27.180Z,0.35
2023-02-11T00:22:54.906Z,0.45
2023-02-11T00:25:22.636Z,0.46
2023-02-11T00:27:50.386Z,0.19
2023-02-11T00:30:18.240Z,0.20
2023-02-11T00:32:46.099Z,-0.01
2023-02-11T00:35:15.572Z,0.02
2023-02-11T00:37:43.404Z,-0.01
2023-02-11T00:40:12.788Z,-0.19
2023-02-11T00:42:40.777Z,-0.35
2023-02-11T00:45:09.751Z,-0.44
2023-02-11T00:47:37.840Z,-0.57
2023-02-11T00:50:06.599Z,-0.52
2023-02-11T00:52:35.895Z,-0.46
2023-02-11T00:55:03.707Z,-0.41
2023-02-11T00:57:33.338Z,-0.21
2023-02-11T01:00:01.072Z,-0.19
2023-02-11T01:02:30.857Z,-0.17
2023-02-11T01:04:59.746Z,-0.13
2023-02-11T01:07:28.299Z,-0.01
2023-02-11T01:09:57.643Z,0.18
2023-02-11T01:12:25.901Z,0.28
2023-02-11T01:14:53.711Z,0.25
2023-02-11T01:17:21.509Z,0.21
2023-02-11T01:19:51.094Z,0.15
2023-02-11T01:22:18.953Z,0.20
2023-02-11T01:24:48.357Z,-0.18
2023-02-11T01:27:17.520Z,0.09
2023-02-11T01:29:45.726Z,0.16
2023-02-11T01:32:14.245Z,-0.18
2023-02-11T01:34:41.976Z,-0.19
2023-02-11T01:37:09.716Z,-0.26
2023-02-11T01:39:37.482Z,-0.38
2023-02-11T01:42:06.651Z,-0.34
2023-02-11T01:44:38.467Z,-0.38
2023-02-11T01:47:06.917Z,-0.38
2023-02-11T01:49:37.445Z,-0.14
2023-02-11T01:52:10.405Z,-0.55
2023-02-11T01:55:00.656Z,-0.95
2023-02-11T01:57:33.382Z,-0.71
2023-02-11T02:00:09.222Z,-0.28
2023-02-11T02:02:50.158Z,-0.04
2023-02-11T02:05:25.525Z,0.06
2023-02-11T02:08:01.285Z,0.17
2023-02-11T02:10:31.318Z,0.20
2023-02-11T02:12:59.046Z,0.17
2023-02-11T02:15:34.115Z,-0.15
2023-02-11T02:18:18.259Z,-0.10
2023-02-11T02:21:27.658Z,-0.01
2023-02-11T02:24:32.616Z,-0.02
2023-02-11T02:27:20.576Z,0.10
2023-02-11T02:30:15.750Z,0.05
2023-02-11T02:32:56.825Z,-0.18
2023-02-11T02:35:36.604Z,0.08
2023-02-11T02:38:09.582Z,0.22
2023-02-11T02:40:43.018Z,0.17
2023-02-11T02:43:12.163Z,0.33
2023-02-11T02:45:39.991Z,0.42
2023-02-11T02:48:29.329Z,0.50
2023-02-11T02:51:08.636Z,0.50
2023-02-11T02:53:51.021Z,0.07
2023-02-11T02:56:26.471Z,0.25
2023-02-11T02:59:23.266Z,0.26
2023-02-11T03:02:03.478Z,-0.46
2023-02-11T03:04:41.746Z,-0.35
2023-02-11T03:07:17.016Z,-0.01
2023-02-11T03:09:55.816Z,0.18
2023-02-11T03:12:28.744Z,0.25
2023-02-11T03:14:56.432Z,0.10
2023-02-11T03:17:26.316Z,0.02
2023-02-11T03:19:57.806Z,0.15
2023-02-11T03:22:31.497Z,0.21
2023-02-11T03:25:03.364Z,0.18
2023-02-11T03:27:42.492Z,-0.31
2023-02-11T03:30:14.089Z,-0.07
2023-02-11T03:32:44.974Z,-0.29
2023-02-11T03:35:19.635Z,-0.32
2023-02-11T03:37:53.313Z,-0.07
2023-02-11T03:40:23.454Z,-0.07
2023-02-11T03:42:55.619Z,-0.03
2023-02-11T03:45:26.043Z,-0.02
2023-02-11T03:48:04.461Z,-0.05
2023-02-11T03:50:36.808Z,0.08
2023-02-11T03:53:06.029Z,0.23
2023-02-11T03:55:37.983Z,0.05
2023-02-11T03:58:05.819Z,-0.22
2023-02-11T04:00:36.609Z,-0.81
2023-02-11T04:03:04.553Z,-0.54
2023-02-11T04:05:37.295Z,-0.41
2023-02-11T04:08:05.708Z,-0.16
2023-02-11T04:10:33.542Z,-0.23
2023-02-11T04:13:01.249Z,-0.18
2023-02-11T04:15:29.149Z,0.17
2023-02-11T04:17:56.938Z,0.40
2023-02-11T04:20:24.883Z,0.49
2023-02-11T04:22:53.950Z,0.46
2023-02-11T04:25:22.066Z,0.62
2023-02-11T04:27:49.845Z,0.74
2023-02-11T04:30:17.576Z,0.81
2023-02-11T04:32:45.544Z,0.74
2023-02-11T04:35:13.322Z,0.81
2023-02-11T04:37:41.059Z,0.86
2023-02-11T04:40:11.421Z,0.57
2023-02-11T04:42:39.210Z,0.47
2023-02-11T04:45:07.968Z,0.84
2023-02-11T04:47:37.598Z,0.97
2023-02-11T04:50:05.710Z,0.90
2023-02-11T04:52:33.456Z,1.00
2023-02-11T04:55:01.181Z,1.10
2023-02-11T04:57:30.265Z,1.17
2023-02-11T04:59:58.023Z,1.11
2023-02-11T05:02:25.894Z,1.26
2023-02-11T05:04:53.659Z,1.31
2023-02-11T05:07:21.377Z,1.20
2023-02-11T05:09:49.221Z,1.35
2023-02-11T05:12:16.985Z,1.32
2023-02-11T05:14:46.129Z,1.42
2023-02-11T05:17:13.877Z,1.48
2023-02-11T05:19:42.840Z,1.45
2023-02-11T05:22:10.640Z,1.41
2023-02-11T05:24:38.376Z,1.47
2023-02-11T05:27:06.088Z,1.45
2023-02-11T05:29:33.859Z,1.53
2023-02-11T05:32:02.927Z,1.63
2023-02-11T05:34:30.708Z,1.47
2023-02-11T05:36:58.428Z,1.54
2023-02-11T05:39:26.215Z,1.44
2023-02-11T05:41:54.000Z,1.29
2023-02-11T05:44:22.049Z,1.37
2023-02-11T05:46:50.220Z,1.31
2023-02-11T05:49:19.618Z,1.37
2023-02-11T05:51:47.388Z,1.36
2023-02-11T05:54:15.201Z,1.46
2023-02-11T05:56:44.833Z,1.36
2023-02-11T05:59:14.696Z,1.45
2023-02-11T06:01:42.487Z,1.46
2023-02-11T06:04:10.251Z,1.47
2023-02-11T06:06:39.336Z,1.49
2023-02-11T06:09:07.137Z,1.59
2023-02-11T06:11:34.893Z,1.68
2023-02-11T06:14:02.941Z,1.85
2023-02-11T06:16:30.874Z,1.77
2023-02-11T06:18:58.706Z,1.91
2023-02-11T06:21:36.347Z,1.77
2023-02-11T06:24:11.813Z,1.74
2023-02-11T06:26:39.558Z,1.92
2023-02-11T06:29:07.340Z,1.79
2023-02-11T06:31:37.773Z,1.91
2023-02-11T06:34:06.048Z,1.80
2023-02-11T06:36:34.035Z,1.71
2023-02-11T06:39:01.792Z,1.75
2023-02-11T06:41:31.070Z,1.83
2023-02-11T06:43:58.788Z,1.83
2023-02-11T06:46:26.808Z,1.91
2023-02-11T06:48:54.632Z,2.02
2023-02-11T06:51:22.344Z,1.91
2023-02-11T06:53:50.567Z,1.98
2023-02-11T06:56:20.194Z,1.98
2023-02-11T06:58:53.389Z,1.87
2023-02-11T07:01:21.376Z,1.99
2023-02-11T07:03:52.452Z,1.86
2023-02-11T07:06:24.787Z,1.96
2023-02-11T07:08:55.623Z,1.97
2023-02-11T07:11:25.899Z,2.20
2023-02-11T07:13:57.541Z,2.10
2023-02-11T07:16:25.327Z,2.10
2023-02-11T07:18:53.214Z,2.16
2023-02-11T07:21:22.534Z,2.21
2023-02-11T07:23:50.395Z,2.23
2023-02-11T07:26:21.275Z,2.23
2023-02-11T07:28:48.972Z,2.25
2023-02-11T07:31:20.602Z,2.43
2023-02-11T07:33:48.545Z,2.42
2023-02-11T07:36:17.586Z,2.48
2023-02-11T07:38:45.519Z,2.56
2023-02-11T07:41:20.597Z,2.74
2023-02-11T07:43:48.715Z,2.81
2023-02-11T07:46:19.858Z,2.86
2023-02-11T07:48:47.966Z,2.91
2023-02-11T07:51:17.821Z,2.89
2023-02-11T07:53:45.861Z,3.06
2023-02-11T07:56:15.195Z,3.17
2023-02-11T07:58:43.343Z,3.28
2023-02-11T08:01:14.234Z,3.30
2023-02-11T08:03:43.779Z,3.59
2023-02-11T08:06:13.191Z,4.11
2023-02-11T08:08:41.276Z,3.97
2023-02-11T08:11:09.300Z,3.73
2023-02-11T08:13:37.637Z,3.63
2023-02-11T08:16:06.749Z,3.69
2023-02-11T08:18:35.817Z,3.69
2023-02-11T08:21:09.308Z,3.76
2023-02-11T08:23:38.116Z,3.91
2023-02-11T08:26:07.475Z,3.98
2023-02-11T08:28:36.659Z,3.99
2023-02-11T08:31:07.728Z,4.03
2023-02-11T08:33:35.655Z,3.88
2023-02-11T08:36:10.947Z,3.87
2023-02-11T08:38:39.130Z,3.88
2023-02-11T08:41:07.852Z,4.25
2023-02-11T08:43:35.647Z,5.08
2023-02-11T08:46:04.095Z,5.61
2023-02-11T08:48:31.826Z,5.73
2023-02-11T08:50:59.694Z,6.93
2023-02-11T08:53:28.772Z,10.47
2023-02-11T08:55:58.093Z,8.39
2023-02-11T08:58:25.913Z,9.12
2023-02-11T09:00:54.112Z,8.47
2023-02-11T09:03:22.072Z,8.50
2023-02-11T09:05:53.106Z,8.15
2023-02-11T09:08:21.752Z,7.30
2023-02-11T09:10:51.147Z,7.70
2023-02-11T09:13:19.104Z,7.90
2023-02-11T09:15:47.428Z,7.13
2023-02-11T09:18:15.304Z,7.49
2023-02-11T09:20:43.235Z,7.92
2023-02-11T09:23:12.350Z,7.58
2023-02-11T09:25:40.624Z,7.19
2023-02-11T09:28:11.413Z,7.88
2023-02-11T09:30:39.711Z,7.18
2023-02-11T09:33:07.685Z,7.43
2023-02-11T09:35:35.679Z,7.61
2023-02-11T09:38:03.497Z,7.79
2023-02-11T09:40:31.436Z,7.83
2023-02-11T09:43:05.172Z,7.97
2023-02-11T09:45:34.386Z,8.45
2023-02-11T09:48:06.578Z,8.30
2023-02-11T09:50:37.290Z,8.63
2023-02-11T09:53:12.785Z,8.57
2023-02-11T09:55:43.175Z,8.63
2023-02-11T09:58:15.337Z,8.70
2023-02-11T10:00:49.851Z,8.81
2023-02-11T10:03:43.530Z,8.65
2023-02-11T10:06:25.795Z,8.42
2023-02-11T10:09:03.150Z,8.55
2023-02-11T10:11:41.897Z,8.68
2023-02-11T10:14:22.496Z,8.44
2023-02-11T10:17:04.425Z,8.60
2023-02-11T10:19:44.163Z,8.71
2023-02-11T10:22:18.784Z,8.92
2023-02-11T10:24:53.398Z,9.08
2023-02-11T10:27:23.031Z,9.12
2023-02-11T10:29:54.747Z,9.42
2023-02-11T10:32:33.437Z,9.12
2023-02-11T10:35:10.429Z,9.72
2023-02-11T10:37:38.146Z,9.44
2023-02-11T10:40:08.317Z,9.62
2023-02-11T10:42:36.943Z,10.09
2023-02-11T10:45:07.278Z,9.71
2023-02-11T10:47:39.433Z,9.70
2023-02-11T10:50:20.945Z,9.77
2023-02-11T10:52:51.097Z,10.01
2023-02-11T10:55:21.648Z,10.20
2023-02-11T10:57:57.485Z,10.13
2023-02-11T11:00:34.169Z,9.94
2023-02-11T11:03:05.871Z,10.25
2023-02-11T11:05:36.162Z,10.53
2023-02-11T11:08:06.628Z,10.87
2023-02-11T11:10:43.419Z,10.37
2023-02-11T11:13:28.615Z,10.56
2023-02-11T11:16:16.532Z,10.77
2023-02-11T11:18:47.461Z,10.91
2023-02-11T11:21:18.972Z,10.74
2023-02-11T11:23:53.594Z,10.54
2023-02-11T11:26:25.059Z,9.49
2023-02-11T11:28:58.122Z,10.34
2023-02-11T11:31:29.526Z,9.45
2023-02-11T11:34:01.186Z,10.16
2023-02-11T11:36:40.197Z,10.43
2023-02-11T11:39:20.415Z,10.44
2023-02-11T11:41:57.380Z,10.10
2023-02-11T11:44:29.789Z,11.26
2023-02-11T11:47:31.225Z,11.50
2023-02-11T11:50:26.308Z,11.54
2023-02-11T11:53:01.188Z,10.72
2023-02-11T11:55:34.248Z,11.44
2023-02-11T11:58:02.058Z,11.77
2023-02-11T12:00:36.422Z,11.74
2023-02-11T12:03:34.010Z,12.63
2023-02-11T12:06:21.986Z,11.67
2023-02-11T12:09:01.676Z,12.00
2023-02-11T12:11:37.346Z,12.95
2023-02-11T12:14:14.866Z,12.80
2023-02-11T12:16:53.783Z,12.56
2023-02-11T12:19:45.460Z,11.26
2023-02-11T12:22:26.756Z,11.25
2023-02-11T12:25:19.743Z,11.66
2023-02-11T12:27:55.757Z,10.26
2023-02-11T12:30:40.003Z,11.26
2023-02-11T12:33:16.545Z,12.45
2023-02-11T12:35:54.941Z,11.73
2023-02-11T12:38:40.547Z,11.35
2023-02-11T12:41:42.969Z,11.26
2023-02-11T12:44:24.152Z,10.46
2023-02-11T12:47:02.120Z,10.64
2023-02-11T12:49:52.165Z,11.40
2023-02-11T12:52:41.532Z,11.24
2023-02-11T12:55:20.812Z,10.67
2023-02-11T12:57:51.076Z,11.03
2023-02-11T13:00:22.184Z,10.87
2023-02-11T13:02:57.350Z,10.92
2023-02-11T13:05:30.014Z,10.29
2023-02-11T13:08:03.681Z,10.23
2023-02-11T13:10:36.012Z,10.72
2023-02-11T13:13:18.192Z,10.76
2023-02-11T13:15:51.104Z,11.30
2023-02-11T13:18:28.513Z,11.35
2023-02-11T13:21:06.852Z,11.30
2023-02-11T13:23:42.633Z,10.11
2023-02-11T13:26:20.519Z,10.48
2023-02-11T13:28:53.968Z,10.60
2023-02-11T13:31:26.622Z,11.46
2023-02-11T13:33:54.473Z,11.31
2023-02-11T13:36:25.480Z,10.72
2023-02-11T13:38:56.927Z,11.07
2023-02-11T13:41:30.329Z,11.13
2023-02-11T13:44:00.500Z,10.49
2023-02-11T13:46:30.921Z,11.19
2023-02-11T13:48:59.474Z,11.56
2023-02-11T13:51:40.104Z,11.06
2023-02-11T13:54:09.828Z,11.51
2023-02-11T13:56:40.888Z,11.01
2023-02-11T13:59:45.523Z,11.23
2023-02-11T14:02:43.557Z,10.80
2023-02-11T14:05:43.655Z,10.39
2023-02-11T14:08:39.412Z,11.31
2023-02-11T14:11:12.288Z,11.21
2023-02-11T14:14:03.295Z,11.22
2023-02-11T14:16:38.051Z,11.40
2023-02-11T14:19:09.587Z,11.28
2023-02-11T14:21:40.795Z,10.89
2023-02-11T14:24:47.797Z,10.95
2023-02-11T14:27:25.553Z,10.89
2023-02-11T14:30:21.285Z,10.78
2023-02-11T14:33:06.834Z,10.19
2023-02-11T14:35:42.834Z,9.96
2023-02-11T14:38:20.678Z,10.07
2023-02-11T14:40:58.523Z,10.66
2023-02-11T14:43:31.707Z,10.20
2023-02-11T14:46:02.342Z,10.34
2023-02-11T14:48:32.906Z,10.02
2023-02-11T14:51:07.838Z,10.20
2023-02-11T14:53:37.677Z,10.58
2023-02-11T14:56:18.895Z,10.02
2023-02-11T14:58:51.805Z,10.35
2023-02-11T15:01:27.923Z,10.18
2023-02-11T15:03:56.700Z,10.07
2023-02-11T15:06:30.776Z,10.54
2023-02-11T15:09:03.817Z,10.27
2023-02-11T15:11:35.428Z,10.06
2023-02-11T15:14:09.648Z,10.22
2023-02-11T15:16:42.476Z,9.98
2023-02-11T15:19:21.025Z,10.04
2023-02-11T15:21:51.660Z,10.06
2023-02-11T15:24:25.359Z,10.48
2023-02-11T15:27:05.094Z,10.36
2023-02-11T15:29:38.259Z,9.87
2023-02-11T15:32:15.440Z,9.78
2023-02-11T15:34:44.142Z,9.33
2023-02-11T15:37:20.848Z,9.23
2023-02-11T15:39:48.630Z,9.75
2023-02-11T15:42:21.623Z,9.60
2023-02-11T15:45:11.905Z,9.34
2023-02-11T15:47:41.871Z,9.66
2023-02-11T15:50:22.142Z,9.74
2023-02-11T15:52:52.902Z,9.47
2023-02-11T15:55:21.645Z,9.67
2023-02-11T15:57:54.803Z,9.31
2023-02-11T16:00:25.493Z,9.57
2023-02-11T16:02:54.031Z,9.09
2023-02-11T16:05:31.699Z,9.63
2023-02-11T16:08:01.566Z,9.53
2023-02-11T16:10:31.986Z,9.06
2023-02-11T16:13:20.197Z,9.39
2023-02-11T16:15:52.356Z,9.54
2023-02-11T16:18:39.595Z,9.29
2023-02-11T16:21:16.728Z,9.30
2023-02-11T16:23:51.979Z,9.24
2023-02-11T16:26:27.885Z,9.14
2023-02-11T16:29:10.849Z,9.31
2023-02-11T16:31:40.955Z,9.12
2023-02-11T16:34:14.722Z,9.23
2023-02-11T16:36:42.910Z,9.56
2023-02-11T16:39:12.370Z,9.59
2023-02-11T16:41:40.291Z,9.18
2023-02-11T16:44:08.106Z,9.22
2023-02-11T16:46:38.822Z,8.72
2023-02-11T16:49:11.363Z,8.98
2023-02-11T16:51:41.542Z,8.60
2023-02-11T16:54:14.725Z,8.89
2023-02-11T16:56:43.113Z,8.52
2023-02-11T16:59:10.877Z,8.71
2023-02-11T17:01:40.320Z,8.88
2023-02-11T17:04:17.512Z,8.98
2023-02-11T17:06:45.297Z,8.88
2023-02-11T17:09:19.717Z,8.97
2023-02-11T17:11:47.761Z,9.10
2023-02-11T17:14:15.927Z,9.26
2023-02-11T17:16:47.058Z,8.71
2023-02-11T17:19:16.640Z,8.98
2023-02-11T17:21:44.877Z,9.13
2023-02-11T17:24:14.280Z,9.27
2023-02-11T17:26:45.181Z,9.22
2023-02-11T17:29:17.181Z,9.31
2023-02-11T17:31:45.916Z,9.32
2023-02-11T17:34:13.920Z,9.26
2023-02-11T17:36:42.003Z,9.33
2023-02-11T17:39:10.185Z,9.35
2023-02-11T17:41:38.858Z,9.18
2023-02-11T17:44:12.199Z,9.15
2023-02-11T17:46:39.973Z,9.29
2023-02-11T17:49:07.748Z,9.36
2023-02-11T17:51:37.425Z,9.27
2023-02-11T17:54:07.881Z,9.13
2023-02-11T17:56:37.431Z,9.04
2023-02-11T17:59:06.696Z,8.83
2023-02-11T18:01:37.047Z,8.85
2023-02-11T18:04:05.482Z,8.54
2023-02-11T18:06:34.817Z,8.74
2023-02-11T18:09:04.205Z,8.94
2023-02-11T18:11:33.729Z,9.02
2023-02-11T18:14:01.984Z,8.93
2023-02-11T18:16:30.462Z,8.72
2023-02-11T18:18:59.942Z,8.78
2023-02-11T18:21:28.633Z,8.86
2023-02-11T18:23:56.940Z,8.60
2023-02-11T18:26:27.948Z,8.41
2023-02-11T18:28:57.614Z,8.40
2023-02-11T18:31:26.419Z,8.65
2023-02-11T18:33:57.010Z,8.79
2023-02-11T18:36:28.682Z,8.83
2023-02-11T18:38:58.135Z,8.72
2023-02-11T18:41:25.976Z,8.63
2023-02-11T18:43:54.220Z,8.72
2023-02-11T18:46:24.323Z,8.84
2023-02-11T18:48:55.841Z,8.93
2023-02-11T18:51:24.172Z,8.90
2023-02-11T18:53:53.530Z,8.91
2023-02-11T18:56:24.558Z,8.78
2023-02-11T18:58:52.402Z,8.54
2023-02-11T19:01:22.841Z,8.59
2023-02-11T19:03:51.613Z,8.10
2023-02-11T19:06:21.659Z,8.39
2023-02-11T19:08:49.492Z,8.56
2023-02-11T19:11:19.831Z,8.66
2023-02-11T19:13:48.749Z,8.70
2023-02-11T19:16:19.689Z,8.66
2023-02-11T19:18:47.546Z,8.67
2023-02-11T19:21:15.366Z,8.59
2023-02-11T19:23:43.115Z,8.67
2023-02-11T19:26:10.833Z,8.72
2023-02-11T19:28:39.910Z,8.61
2023-02-11T19:31:09.367Z,8.54
2023-02-11T19:33:37.690Z,8.53
2023-02-11T19:36:07.072Z,8.58
2023-02-11T19:38:35.634Z,8.64
2023-02-11T19:41:03.745Z,8.65
2023-02-11T19:43:31.868Z,8.68
2023-02-11T19:46:02.605Z,8.73
2023-02-11T19:48:30.558Z,8.72
2023-02-11T19:50:58.572Z,8.71
2023-02-11T19:53:26.336Z,8.73
2023-02-11T19:55:54.442Z,8.71
2023-02-11T19:58:22.292Z,8.49
2023-02-11T20:00:50.057Z,8.12
2023-02-11T20:03:19.157Z,8.36
2023-02-11T20:05:47.742Z,8.44
2023-02-11T20:08:16.983Z,8.41
2023-02-11T20:10:44.727Z,8.48
2023-02-11T20:13:12.402Z,8.56
2023-02-11T20:15:40.312Z,8.59
2023-02-11T20:18:08.118Z,8.59
2023-02-11T20:20:38.957Z,8.56
2023-02-11T20:23:06.687Z,8.29
2023-02-11T20:25:34.410Z,8.43
2023-02-11T20:28:02.259Z,8.46
2023-02-11T20:30:30.170Z,8.53
2023-02-11T20:32:58.450Z,8.49
2023-02-11T20:35:26.172Z,8.50
2023-02-11T20:37:55.299Z,8.53
2023-02-11T20:40:22.976Z,8.57
2023-02-11T20:42:50.744Z,8.50
2023-02-11T20:45:18.647Z,8.32
2023-02-11T20:47:46.338Z,8.31
2023-02-11T20:50:14.148Z,8.22
2023-02-11T20:52:41.957Z,8.20
2023-02-11T20:55:11.010Z,8.36
2023-02-11T20:57:38.784Z,8.42
2023-02-11T21:00:07.776Z,8.45
2023-02-11T21:02:35.469Z,8.45
2023-02-11T21:05:03.248Z,8.24
2023-02-11T21:07:31.363Z,8.09
2023-02-11T21:09:59.167Z,8.27
2023-02-11T21:12:28.315Z,8.11
2023-02-11T21:14:57.086Z,8.14
2023-02-11T21:17:26.363Z,8.32
2023-02-11T21:19:54.145Z,8.35
2023-02-11T21:22:21.865Z,8.32
2023-02-11T21:24:51.733Z,8.07
2023-02-11T21:27:19.763Z,8.21
2023-02-11T21:29:54.287Z,7.73
2023-02-11T21:32:22.553Z,7.76
2023-02-11T21:34:50.270Z,7.98
2023-02-11T21:37:18.051Z,8.16
2023-02-11T21:39:45.774Z,8.20
2023-02-11T21:42:13.479Z,8.28
2023-02-11T21:44:44.315Z,7.69
2023-02-11T21:47:13.370Z,7.58
2023-02-11T21:49:41.251Z,7.51
2023-02-11T21:52:09.059Z,7.47
2023-02-11T21:54:36.740Z,7.49
2023-02-11T21:57:04.623Z,7.78
2023-02-11T21:59:32.716Z,7.56
2023-02-11T22:02:00.504Z,7.65
2023-02-11T22:04:29.702Z,7.94
2023-02-11T22:06:57.438Z,8.03
2023-02-11T22:09:25.280Z,8.08
2023-02-11T22:11:53.609Z,8.09
2023-02-11T22:14:21.377Z,8.07
2023-02-11T22:16:49.216Z,7.98
2023-02-11T22:19:17.282Z,7.98
2023-02-11T22:21:46.362Z,8.03
2023-02-11T22:24:14.036Z,8.03
2023-02-11T22:26:41.853Z,7.94
2023-02-11T22:29:09.672Z,7.89
2023-02-11T22:31:38.017Z,7.77
2023-02-11T22:34:08.193Z,7.86
2023-02-11T22:36:40.160Z,7.74
2023-02-11T22:39:12.818Z,7.57
2023-02-11T22:41:41.836Z,7.85
2023-02-11T22:44:10.289Z,7.92
2023-02-11T22:46:38.411Z,8.00
2023-02-11T22:49:09.042Z,8.05
2023-02-11T22:51:36.910Z,8.06
2023-02-11T22:54:06.602Z,8.06
2023-02-11T22:56:36.225Z,8.01
2023-02-11T22:59:10.227Z,7.66
2023-02-11T23:01:38.227Z,7.33
2023-02-11T23:04:11.184Z,7.51
2023-02-11T23:06:39.254Z,7.74
2023-02-11T23:09:07.677Z,7.89
2023-02-11T23:11:37.095Z,7.93
2023-02-11T23:14:05.273Z,7.93
2023-02-11T23:16:36.134Z,7.89
2023-02-11T23:19:07.192Z,7.87
2023-02-11T23:21:38.041Z,7.79
2023-02-11T23:24:08.469Z,7.82
2023-02-11T23:26:38.899Z,7.90
2023-02-11T23:29:09.553Z,7.92
2023-02-11T23:31:39.879Z,7.95
2023-02-11T23:34:08.395Z,7.92
2023-02-11T23:36:36.653Z,7.90
2023-02-11T23:39:05.550Z,7.89
2023-02-11T23:41:33.335Z,7.90
2023-02-11T23:44:02.549Z,7.92
2023-02-11T23:46:30.368Z,7.93
2023-02-11T23:48:58.086Z,7.96
2023-02-11T23:51:25.824Z,7.96
2023-02-11T23:53:55.987Z,8.01
2023-02-11T23:56:28.071Z,8.00
2023-02-11T23:58:57.988Z,7.99
